Lochgelly, West Virginia
Current Conditions -  °F | °C
As of 6:58 PM on Sunday 23 Nov 2014 (Local Time) from KBKW Reporting Station
Light Rain Light Rain  
Wind Chill: 52°   Ceiling: 1000
Heat Index: 52°   Visibility: 10mi
Dew Point: 48°   Wind: 17mph
Humidity: 86%   Direction: 140°SE
Pressure: 29.77"   Gusts: 36mph
Location:  38.01°N, 81.15°W
Report Text: KBKW 232358Z AUTO 14015G31KT 10SM -RA OVC010 11/09 A2977 RMK AO2 PK WND 14031/2353 P0001 T01110089
Loading
Personal Weather Stations






























Interactive Weather Map New forecast layout! Learn more

10-Day Weather Forecast

Advertisements
Track Severe Weather on mobile